Time;durP1;ratioP1;P1;durP2;ratioP2;P2;SDS_P1;SDS_P2;PMS_P1;PMS_P2;Temp;Humidity;BMP_temperature;BMP_pressure;BME280_temperature;BME280_humidity;BME280_pressure;Samples;Min_cycle;Max_cycle;Signal;HPM_P1;HPM_P2
2022/10/22 00:06:12;;;;;;;0.75;0.75;;;;;;;17.42;100.00;100568.34;20886021;28;20136;-74
2022/10/22 00:16:14;;;;;;;1.10;1.00;;;;;;;17.22;100.00;100536.03;20884947;28;20048;-74
2022/10/22 00:26:15;;;;;;;1.02;0.90;;;;;;;17.27;100.00;100559.84;20882904;28;20051;-74
2022/10/22 00:36:17;;;;;;;0.70;0.57;;;;;;;17.08;100.00;100533.78;20883439;28;20501;-75
2022/10/22 00:46:18;;;;;;;0.90;0.80;;;;;;;17.36;100.00;100585.91;20897733;28;20143;-75
2022/10/22 00:56:20;;;;;;;1.10;0.88;;;;;;;16.94;100.00;100533.16;20881635;28;20057;-75
2022/10/22 01:06:28;;;;;;;0.60;0.60;;;;;;;17.19;100.00;100573.16;20878468;28;20144;-75
2022/10/22 01:16:36;;;;;;;0.70;0.65;;;;;;;17.12;100.00;100556.72;20880017;28;20043;-74
2022/10/22 01:26:56;;;;;;;0.90;0.70;;;;;;;17.39;100.00;100601.75;20878642;28;20107;-75
2022/10/22 01:36:58;;;;;;;0.70;0.68;;;;;;;17.21;100.00;100573.88;20878917;28;20060;-74
2022/10/22 01:47:18;;;;;;;0.82;0.70;;;;;;;17.38;100.00;100589.31;20878327;28;20056;-74
2022/10/22 01:57:32;;;;;;;0.80;0.80;;;;;;;17.24;100.00;100577.13;20878696;28;20052;-74
2022/10/22 02:07:37;;;;;;;0.70;0.57;;;;;;;17.32;100.00;100584.47;20877206;28;20076;-74
2022/10/22 02:17:41;;;;;;;0.70;0.50;;;;;;;17.37;100.00;100592.16;20881486;28;20455;-74
2022/10/22 02:27:46;;;;;;;0.68;0.68;;;;;;;17.29;100.00;100592.00;20892706;28;20103;-74
2022/10/22 02:37:48;;;;;;;0.77;0.52;;;;;;;17.36;100.00;100588.59;20893428;28;20128;-74
2022/10/22 02:47:50;;;;;;;0.43;0.43;;;;;;;17.36;100.00;100593.97;20890104;28;20083;-75
2022/10/22 02:57:52;;;;;;;0.50;0.50;;;;;;;17.14;100.00;100545.81;20889377;28;20053;-74
2022/10/22 03:07:53;;;;;;;0.60;0.60;;;;;;;17.37;100.00;100597.53;20888081;28;20052;-74
2022/10/22 03:17:54;;;;;;;0.50;0.50;;;;;;;17.36;100.00;100603.91;20888907;28;20139;-74
2022/10/22 03:27:59;;;;;;;0.75;0.63;;;;;;;17.36;100.00;100601.22;20886523;28;20051;-74
2022/10/22 03:38:01;;;;;;;0.40;0.40;;;;;;;17.04;100.00;100548.50;20887034;28;20551;-74
2022/10/22 03:48:02;;;;;;;0.57;0.57;;;;;;;17.35;100.00;100605.72;20886931;28;20056;-74
2022/10/22 03:58:04;;;;;;;0.60;0.60;;;;;;;17.34;100.00;100609.41;20882029;28;20064;-75
2022/10/22 04:08:05;;;;;;;0.60;0.60;;;;;;;17.35;100.00;100619.19;20873879;28;20051;-74
2022/10/22 04:18:07;;;;;;;2.35;0.90;;;;;;;17.24;100.00;100595.09;20861409;28;20045;-75
2022/10/22 04:28:09;;;;;;;2.67;0.80;;;;;;;17.36;100.00;100604.75;20859607;28;20060;-74
2022/10/22 04:38:10;;;;;;;3.13;0.90;;;;;;;17.29;100.00;100567.78;20861892;28;20453;-73
2022/10/22 04:48:12;;;;;;;1.55;1.00;;;;;;;17.62;100.00;100619.47;20874075;28;20056;-74
2022/10/22 04:58:13;;;;;;;4.00;1.33;;;;;;;17.65;100.00;100622.75;20858983;28;20053;-74
2022/10/22 05:08:14;;;;;;;1.90;0.90;;;;;;;17.67;100.00;100634.22;20862365;28;20053;-74
2022/10/22 05:18:16;;;;;;;1.48;0.80;;;;;;;17.29;100.00;100567.78;20878940;28;20072;-74
2022/10/22 05:28:22;;;;;;;2.55;0.90;;;;;;;17.48;100.00;100591.16;20883945;28;20064;-74
2022/10/22 05:38:23;;;;;;;1.08;0.98;;;;;;;17.69;100.00;100648.41;20877644;28;20059;-74
2022/10/22 05:48:25;;;;;;;2.10;1.02;;;;;;;17.58;100.00;100620.75;20866449;28;20048;-76
2022/10/22 05:58:26;;;;;;;2.00;0.60;;;;;;;17.70;100.00;100643.88;20841464;28;20053;-79
2022/10/22 06:08:28;;;;;;;1.10;0.70;;;;;;;17.67;100.00;100639.63;20836265;28;20053;-75
2022/10/22 06:18:30;;;;;;;1.83;0.82;;;;;;;17.68;100.00;100654.78;20836740;28;20131;-75
2022/10/22 06:28:32;;;;;;;0.93;0.80;;;;;;;17.66;100.00;100662.16;20831820;28;20049;-74
2022/10/22 06:38:33;;;;;;;0.85;0.60;;;;;;;17.63;100.00;100670.50;20824420;28;20049;-75
2022/10/22 06:48:36;;;;;;;0.95;0.68;;;;;;;17.63;100.00;100696.56;20841285;28;20084;-75
2022/10/22 06:58:38;;;;;;;2.53;1.02;;;;;;;17.56;100.00;100681.97;20840769;28;20203;-75
2022/10/22 07:08:40;;;;;;;5.00;1.30;;;;;;;17.63;100.00;100699.25;20845314;28;20041;-76
2022/10/22 07:18:43;;;;;;;1.85;1.08;;;;;;;17.68;100.00;100716.69;20828444;28;20048;-77
2022/10/22 07:28:45;;;;;;;3.72;1.30;;;;;;;17.62;100.00;100714.56;20844314;28;20057;-76
2022/10/22 07:38:50;;;;;;;2.83;1.05;;;;;;;17.74;100.00;100739.53;20873339;28;20076;-75
2022/10/22 07:48:52;;;;;;;;;;;;;;;17.71;100.00;100747.03;20909973;28;20081;-75
2022/10/22 07:58:53;;;;;;;2.47;1.40;;;;;;;17.69;100.00;100764.16;20901846;28;20007;-76
2022/10/22 08:08:55;;;;;;;2.83;0.90;;;;;;;17.56;100.00;100747.44;20885333;28;20048;-75
2022/10/22 08:18:56;;;;;;;3.03;1.30;;;;;;;17.65;100.00;100783.41;20884849;28;20041;-76
2022/10/22 08:28:58;;;;;;;2.35;1.08;;;;;;;17.41;100.00;100736.19;20885107;28;20506;-76
2022/10/22 08:38:59;;;;;;;2.60;1.45;;;;;;;17.62;100.00;100786.38;20882935;28;20044;-76
2022/10/22 08:49:02;;;;;;;3.28;1.13;;;;;;;17.61;100.00;100793.63;20881414;28;20037;-77
2022/10/22 08:59:13;;;;;;;2.72;1.05;;;;;;;17.61;100.00;100806.22;20880825;28;20382;-76
2022/10/22 09:09:16;;;;;;;2.00;1.08;;;;;;;17.61;100.00;100799.00;20879689;28;20055;-76
2022/10/22 09:19:28;;;;;;;1.95;1.35;;;;;;;17.43;100.00;100793.41;20879598;28;20567;-75
2022/10/22 09:29:32;;;;;;;2.15;1.10;;;;;;;17.60;100.00;100812.59;20894522;28;20110;-75
2022/10/22 09:39:38;;;;;;;1.95;0.80;;;;;;;17.60;100.00;100823.34;20878078;28;20053;-76
2022/10/22 09:49:39;;;;;;;2.20;1.20;;;;;;;17.59;100.00;100832.41;20797982;28;20049;-76
2022/10/22 09:59:42;;;;;;;2.33;1.00;;;;;;;17.58;100.00;100854.94;20838185;28;20053;-76
2022/10/22 10:09:43;;;;;;;2.30;1.00;;;;;;;17.25;100.00;100812.91;20854499;28;20045;-76
2022/10/22 10:19:50;;;;;;;2.15;0.90;;;;;;;17.55;100.00;100874.94;20875698;28;20508;-75
2022/10/22 10:30:04;;;;;;;1.02;0.90;;;;;;;17.53;100.00;100888.50;20875915;28;20041;-75
2022/10/22 10:40:20;;;;;;;1.67;0.98;;;;;;;17.56;100.00;100903.53;20884384;28;20060;-76
2022/10/22 10:50:39;;;;;;;1.20;0.93;;;;;;;17.54;100.00;100903.66;20906781;28;20049;-75
2022/10/22 11:00:48;;;;;;;1.10;0.90;;;;;;;17.47;100.00;100891.72;20906326;28;20049;-75
2022/10/22 11:10:51;;;;;;;1.45;0.98;;;;;;;17.56;100.00;100908.06;20890908;28;20064;-75
2022/10/22 11:21:10;;;;;;;1.25;0.65;;;;;;;17.56;100.00;100934.97;20888390;28;20096;-76
2022/10/22 11:31:17;;;;;;;1.33;0.95;;;;;;;17.54;100.00;100937.81;20904657;28;20610;-76
2022/10/22 11:41:23;;;;;;;1.65;0.85;;;;;;;17.54;100.00;100938.66;20888210;28;20068;-75
2022/10/22 11:51:28;;;;;;;1.55;0.85;;;;;;;17.56;100.00;100948.44;20885217;28;20053;-76
2022/10/22 12:01:40;;;;;;;1.50;0.80;;;;;;;17.54;100.00;100948.59;20901388;28;20049;-76
2022/10/22 12:11:46;;;;;;;0.95;0.70;;;;;;;17.56;100.00;100945.75;20882290;28;20049;-76
2022/10/22 12:21:59;;;;;;;0.90;0.70;;;;;;;17.56;100.00;100934.97;20882667;28;20063;-75
2022/10/22 12:32:03;;;;;;;0.95;0.77;;;;;;;17.56;100.00;100937.69;20883510;28;20049;-75
2022/10/22 12:42:07;;;;;;;0.70;0.70;;;;;;;17.43;100.00;100925.28;20879403;28;20049;-76
2022/10/22 12:52:14;;;;;;;1.30;0.88;;;;;;;17.56;100.00;100940.38;20881394;28;20310;-75
2022/10/22 13:02:20;;;;;;;1.23;0.65;;;;;;;17.27;100.00;100898.00;20881716;28;20053;-75
2022/10/22 13:12:26;;;;;;;0.93;0.73;;;;;;;17.44;100.00;100929.69;20880244;28;20080;-75
2022/10/22 13:22:36;;;;;;;1.02;0.80;;;;;;;17.37;100.00;100925.81;20880590;28;20087;-75
2022/10/22 13:32:38;;;;;;;0.90;0.70;;;;;;;17.54;100.00;100970.97;20885936;28;20060;-75
2022/10/22 13:42:40;;;;;;;1.25;0.68;;;;;;;17.54;100.00;100970.13;20878921;28;20045;-76
2022/10/22 13:52:45;;;;;;;1.23;0.70;;;;;;;17.52;100.00;100972.94;20878372;28;20619;-76
2022/10/22 14:02:49;;;;;;;1.63;0.65;;;;;;;17.54;100.00;100984.41;20868527;28;20533;-75
2022/10/22 14:12:54;;;;;;;1.27;0.90;;;;;;;17.53;100.00;100977.34;20872023;28;20048;-75
2022/10/22 14:23:01;;;;;;;0.77;0.63;;;;;;;17.45;100.00;100981.66;20905119;28;20524;-76
2022/10/22 14:33:24;;;;;;;0.98;0.88;;;;;;;17.48;100.00;100992.19;20905089;28;20477;-76
2022/10/22 14:43:32;;;;;;;0.80;0.70;;;;;;;17.27;100.00;100952.66;20916742;28;20045;-77
2022/10/22 14:53:33;;;;;;;1.05;0.70;;;;;;;17.53;100.00;101006.94;20914131;28;20060;-76
2022/10/22 15:03:35;;;;;;;0.65;0.55;;;;;;;17.37;100.00;100985.88;20887608;28;20037;-76
2022/10/22 15:13:37;;;;;;;0.90;0.68;;;;;;;17.52;100.00;101016.00;20855270;28;20057;-76
2022/10/22 15:23:39;;;;;;;1.65;0.80;;;;;;;17.52;100.00;101029.47;20786151;28;20437;-76
2022/10/22 15:33:42;;;;;;;0.85;0.73;;;;;;;17.52;100.00;101045.59;20853226;28;20497;-76
2022/10/22 15:43:43;;;;;;;0.70;0.63;;;;;;;17.52;100.00;101064.44;20854982;28;20052;-76
2022/10/22 15:53:53;;;;;;;0.90;0.70;;;;;;;17.46;100.00;101048.00;20833965;28;20080;-76
2022/10/22 16:04:01;;;;;;;0.60;0.55;;;;;;;17.28;100.00;101034.25;20832081;28;20410;-76
2022/10/22 16:14:03;;;;;;;1.90;0.60;;;;;;;17.51;100.00;101073.50;20829215;28;20065;-76
2022/10/22 16:24:07;;;;;;;1.02;0.60;;;;;;;17.50;100.00;101081.75;20837115;28;20049;-75
2022/10/22 16:34:08;;;;;;;0.63;0.63;;;;;;;17.48;100.00;101089.94;20827977;28;20150;-74
2022/10/22 16:44:11;;;;;;;0.70;0.68;;;;;;;17.49;100.00;101097.00;20838220;28;20056;-75
2022/10/22 16:54:14;;;;;;;0.80;0.80;;;;;;;17.01;100.00;101022.94;20834859;28;20072;-75
2022/10/22 17:04:18;;;;;;;2.67;0.90;;;;;;;17.49;100.00;101105.09;20850819;28;20052;-75
2022/10/22 17:14:20;;;;;;;2.53;0.77;;;;;;;17.49;100.00;101109.63;20824853;28;20053;-77
2022/10/22 17:24:22;;;;;;;1.58;0.80;;;;;;;17.48;100.00;101126.78;20828157;28;20044;-76
2022/10/22 17:34:23;;;;;;;1.88;0.70;;;;;;;17.41;100.00;101115.66;20841112;28;20049;-76
2022/10/22 17:44:25;;;;;;;1.40;0.80;;;;;;;17.48;100.00;101154.53;20890905;28;20052;-76
2022/10/22 17:54:26;;;;;;;1.20;0.93;;;;;;;17.42;100.00;101155.03;20838820;28;20044;-77
2022/10/22 18:04:31;;;;;;;1.45;0.77;;;;;;;17.39;100.00;101147.22;20852301;28;20049;-76
2022/10/22 18:14:33;;;;;;;1.83;0.80;;;;;;;17.18;100.00;101123.78;20896860;28;20037;-76
2022/10/22 18:24:35;;;;;;;1.00;0.70;;;;;;;17.46;100.00;101190.63;20861813;28;20136;-75
2022/10/22 18:34:36;;;;;;;1.33;0.80;;;;;;;17.46;100.00;101182.56;20872538;28;20045;-75
2022/10/22 18:44:38;;;;;;;2.45;1.23;;;;;;;17.46;100.00;101188.78;20858110;28;20049;-76
2022/10/22 18:54:39;;;;;;;1.35;0.70;;;;;;;17.45;100.00;101189.78;20876048;28;20058;-75
2022/10/22 19:04:41;;;;;;;0.70;0.68;;;;;;;17.45;100.00;101195.16;20890431;28;20072;-75
2022/10/22 19:14:42;;;;;;;0.90;0.68;;;;;;;17.45;100.00;101180.81;20889190;28;20049;-76
2022/10/22 19:24:45;;;;;;;1.60;0.77;;;;;;;17.45;100.00;101189.78;20890019;28;20429;-77
2022/10/22 19:34:46;;;;;;;1.30;0.73;;;;;;;17.43;100.00;101197.13;20889900;28;20052;-76
2022/10/22 19:44:48;;;;;;;1.23;0.70;;;;;;;17.44;100.00;101206.03;20887166;28;20143;-75
2022/10/22 19:54:49;;;;;;;2.60;0.77;;;;;;;17.44;100.00;101208.72;20887400;28;20049;-76
2022/10/22 20:04:51;;;;;;;2.10;1.00;;;;;;;17.43;100.00;101205.19;20887270;28;20059;-75
2022/10/22 20:14:52;;;;;;;1.65;0.70;;;;;;;17.34;100.00;101184.44;20884166;28;20056;-75
2022/10/22 20:24:54;;;;;;;2.03;1.15;;;;;;;17.43;100.00;101204.31;20867095;28;20135;-75
2022/10/22 20:34:55;;;;;;;0.88;0.70;;;;;;;17.42;100.00;101208.88;20883470;28;20139;-76
2022/10/22 20:44:57;;;;;;;3.15;1.25;;;;;;;17.42;100.00;101208.88;20882262;28;20133;-75
2022/10/22 20:54:58;;;;;;;2.05;0.65;;;;;;;17.35;100.00;101191.50;20882416;28;20056;-76
2022/10/22 21:05:00;;;;;;;0.98;0.70;;;;;;;17.42;100.00;101197.22;20882317;28;20049;-76
2022/10/22 21:15:02;;;;;;;2.03;0.70;;;;;;;17.33;100.00;101188.09;20881670;28;20107;-78
2022/10/22 21:25:04;;;;;;;0.95;0.65;;;;;;;17.36;100.00;101190.53;20878267;28;20163;-79
2022/10/22 21:35:06;;;;;;;1.63;0.60;;;;;;;17.10;100.00;101161.22;20880145;28;20056;-75
2022/10/22 21:45:07;;;;;;;1.55;0.70;;;;;;;17.40;100.00;101206.28;20878151;28;20056;-75
2022/10/22 21:55:15;;;;;;;1.20;0.60;;;;;;;17.34;100.00;101189.81;20861521;28;20063;-75
2022/10/22 22:05:16;;;;;;;1.27;0.80;;;;;;;17.39;100.00;101204.56;20876658;28;20041;-75
2022/10/22 22:15:19;;;;;;;1.00;0.68;;;;;;;17.39;100.00;101223.41;20878221;28;20056;-75
2022/10/22 22:25:20;;;;;;;0.70;0.60;;;;;;;17.39;100.00;101214.50;20876126;28;20455;-75
2022/10/22 22:35:22;;;;;;;0.52;0.50;;;;;;;17.39;100.00;101209.13;20886934;28;20175;-75
2022/10/22 22:45:23;;;;;;;0.70;0.50;;;;;;;17.39;100.00;101209.13;20893343;28;20477;-75
2022/10/22 22:55:25;;;;;;;1.38;0.63;;;;;;;17.06;100.00;101149.00;20891200;28;20071;-75
2022/10/22 23:05:26;;;;;;;1.10;0.52;;;;;;;17.38;100.00;101212.78;20890570;28;20041;-75
2022/10/22 23:15:28;;;;;;;1.58;0.80;;;;;;;17.28;100.00;101183.06;20891251;28;20053;-76
2022/10/22 23:25:29;;;;;;;0.95;0.70;;;;;;;17.38;100.00;101202.03;20890923;28;20132;-76
2022/10/22 23:35:31;;;;;;;0.88;0.50;;;;;;;17.38;100.00;101191.25;20888504;28;20056;-75
2022/10/22 23:45:33;;;;;;;1.27;0.80;;;;;;;17.37;100.00;101185.00;20870111;28;20049;-75
2022/10/22 23:55:36;;;;;;;0.75;0.60;;;;;;;17.36;100.00;101180.59;20885686;28;20076;-75
